createdAt,value
2016-09-15T00:00:23.485Z,18.44
2016-09-15T00:01:23.516Z,18.47
2016-09-15T00:02:24.146Z,18.45
2016-09-15T00:03:23.564Z,18.47
2016-09-15T00:04:23.593Z,18.5
2016-09-15T00:06:23.650Z,18.45
2016-09-15T00:07:23.965Z,18.36
2016-09-15T00:08:38.623Z,18.44
2016-09-15T00:09:23.729Z,18.39
2016-09-15T00:10:23.743Z,18.42
2016-09-15T00:11:23.775Z,18.45
2016-09-15T00:12:23.799Z,18.47
2016-09-15T00:13:23.830Z,18.29
2016-09-15T00:14:23.853Z,18.39
2016-09-15T00:15:23.876Z,18.36
2016-09-15T00:16:23.901Z,18.42
2016-09-15T00:17:23.939Z,18.3
2016-09-15T00:18:23.949Z,18.39
2016-09-15T00:19:23.989Z,18.39
2016-09-15T00:20:38.934Z,18.33
2016-09-15T00:21:24.028Z,18.41
2016-09-15T00:22:24.052Z,18.33
2016-09-15T00:23:24.082Z,18.37
2016-09-15T00:24:24.113Z,18.33
2016-09-15T00:25:24.137Z,18.41
2016-09-15T00:26:24.163Z,18.29
2016-09-15T00:27:24.192Z,18.42
2016-09-15T00:28:24.527Z,18.45
2016-09-15T00:29:24.239Z,18.3
2016-09-15T00:30:24.319Z,18.37
2016-09-15T00:32:24.316Z,18.23
2016-09-15T00:33:24.347Z,18.23
2016-09-15T00:35:24.396Z,18.11
2016-09-15T00:36:24.425Z,18.14
2016-09-15T00:37:24.444Z,18.07
2016-09-15T00:38:24.474Z,18.1
2016-09-15T00:39:24.501Z,18.11
2016-09-15T00:40:39.449Z,17.97
2016-09-15T00:41:24.550Z,18.05
2016-09-15T00:42:24.577Z,18.02
2016-09-15T00:43:24.626Z,18.05
2016-09-15T00:44:24.629Z,18.07
2016-09-15T00:45:24.654Z,17.92
2016-09-15T00:46:24.681Z,17.93
2016-09-15T00:47:24.706Z,17.99
2016-09-15T00:48:24.741Z,18.02
2016-09-15T00:49:24.759Z,18.1
2016-09-15T00:50:39.716Z,18.12
2016-09-15T00:51:24.817Z,18.07
2016-09-15T00:52:24.831Z,18.1
2016-09-15T00:53:24.866Z,18.08
2016-09-15T00:54:24.881Z,17.96
2016-09-15T00:55:24.919Z,17.97
2016-09-15T00:56:39.865Z,18.02
2016-09-15T00:57:24.972Z,18
2016-09-15T00:58:24.987Z,17.93
2016-09-15T00:59:25.012Z,17.96
2016-09-15T01:00:25.044Z,17.9
2016-09-15T01:01:25.071Z,17.92
2016-09-15T01:02:25.144Z,17.87
2016-09-15T01:03:25.118Z,17.86
2016-09-15T01:04:25.139Z,17.82
2016-09-15T01:05:25.471Z,17.92
2016-09-15T01:06:25.199Z,17.86
2016-09-15T01:07:25.228Z,17.87
2016-09-15T01:08:25.245Z,17.84
2016-09-15T01:09:25.274Z,17.87
2016-09-15T01:10:25.294Z,17.93
2016-09-15T01:11:25.324Z,17.87
2016-09-15T01:12:40.275Z,17.87
2016-09-15T01:13:25.379Z,17.81
2016-09-15T01:14:25.406Z,17.74
2016-09-15T01:15:25.722Z,17.78
2016-09-15T01:16:25.456Z,17.81
2016-09-15T01:17:25.493Z,17.82
2016-09-15T01:18:25.505Z,17.74
2016-09-15T01:19:25.530Z,17.81
2016-09-15T01:20:25.559Z,17.71
2016-09-15T01:21:25.580Z,17.63
2016-09-15T01:22:25.608Z,17.64
2016-09-15T01:23:25.634Z,17.64
2016-09-15T01:24:25.657Z,17.7
2016-09-15T01:25:25.687Z,17.63
2016-09-15T01:26:25.710Z,17.62
2016-09-15T01:27:25.741Z,17.59
2016-09-15T01:28:40.685Z,17.66
2016-09-15T01:29:25.785Z,17.66
2016-09-15T01:30:25.815Z,17.59
2016-09-15T01:31:25.891Z,17.56
2016-09-15T01:32:25.864Z,17.55
2016-09-15T01:33:25.892Z,17.56
2016-09-15T01:34:25.915Z,17.52
2016-09-15T01:35:25.941Z,17.49
2016-09-15T01:36:25.967Z,17.52
2016-09-15T01:37:25.991Z,17.41
2016-09-15T01:38:26.015Z,17.4
2016-09-15T01:39:26.044Z,17.38
2016-09-15T01:40:26.065Z,17.36
2016-09-15T01:41:26.098Z,17.41
2016-09-15T01:42:26.123Z,17.43
2016-09-15T01:43:41.072Z,17.4
2016-09-15T01:44:26.178Z,17.37
2016-09-15T01:45:26.197Z,17.48
2016-09-15T01:46:26.223Z,17.37
2016-09-15T01:48:26.277Z,17.4
2016-09-15T01:49:26.302Z,17.23
2016-09-15T01:50:26.323Z,17.31
2016-09-15T01:51:26.351Z,17.31
2016-09-15T01:52:26.380Z,17.25
2016-09-15T01:53:26.404Z,17.25
2016-09-15T01:54:26.427Z,17.23
2016-09-15T01:55:26.455Z,17.26
2016-09-15T01:56:26.482Z,17.23
2016-09-15T01:59:26.558Z,17.23
2016-09-15T02:00:26.583Z,17.28
2016-09-15T02:01:26.611Z,17.26
2016-09-15T02:02:26.631Z,17.19
2016-09-15T02:03:26.654Z,17.15
2016-09-15T02:04:26.685Z,17.25
2016-09-15T02:05:26.713Z,17.15
2016-09-15T02:06:26.735Z,17.18
2016-09-15T02:07:26.763Z,17.25
2016-09-15T02:08:26.787Z,17.28
2016-09-15T02:09:26.807Z,17.15
2016-09-15T02:11:26.862Z,17.15
2016-09-15T02:12:26.884Z,17.19
2016-09-15T02:15:41.887Z,17.18
2016-09-15T02:16:26.986Z,17.15
2016-09-15T02:17:27.019Z,17.19
2016-09-15T02:18:27.039Z,17.12
2016-09-15T02:19:27.067Z,17
2016-09-15T02:20:27.100Z,17.18
2016-09-15T02:21:27.113Z,17.01
2016-09-15T02:22:27.141Z,17.03
2016-09-15T02:23:27.167Z,16.96
2016-09-15T02:24:27.241Z,17.03
2016-09-15T02:25:27.218Z,17.03
2016-09-15T02:26:27.242Z,17
2016-09-15T02:27:42.195Z,17.01
2016-09-15T02:28:27.352Z,17.01
2016-09-15T02:29:27.320Z,17.03
2016-09-15T02:30:27.342Z,17.01
2016-09-15T02:31:42.300Z,16.97
2016-09-15T02:32:42.317Z,17.06
2016-09-15T02:33:27.420Z,17.01
2016-09-15T02:34:27.446Z,17.06
2016-09-15T02:35:27.471Z,16.94
2016-09-15T02:36:27.500Z,16.97
2016-09-15T02:37:27.522Z,16.98
2016-09-15T02:38:27.549Z,16.86
2016-09-15T02:39:27.579Z,16.85
2016-09-15T02:40:27.599Z,16.81
2016-09-15T02:41:27.623Z,16.81
2016-09-15T02:42:27.655Z,16.7
2016-09-15T02:43:27.671Z,16.81
2016-09-15T02:44:27.698Z,16.79
2016-09-15T02:45:27.731Z,16.75
2016-09-15T02:46:27.753Z,16.75
2016-09-15T02:47:42.700Z,16.81
2016-09-15T02:48:27.801Z,16.75
2016-09-15T02:49:27.822Z,16.76
2016-09-15T02:50:27.851Z,16.71
2016-09-15T02:51:27.873Z,16.68
2016-09-15T02:52:27.903Z,16.68
2016-09-15T02:53:27.933Z,16.68
2016-09-15T02:54:27.951Z,16.7
2016-09-15T02:55:27.974Z,16.7
2016-09-15T02:56:27.998Z,16.67
2016-09-15T02:57:28.025Z,16.7
2016-09-15T02:58:28.064Z,16.79
2016-09-15T02:59:28.080Z,16.73
2016-09-15T03:00:28.106Z,16.66
2016-09-15T03:01:28.135Z,16.68
2016-09-15T03:02:28.155Z,16.7
2016-09-15T03:03:43.104Z,16.64
2016-09-15T03:04:28.206Z,16.64
2016-09-15T03:05:28.232Z,16.53
2016-09-15T03:06:28.256Z,16.53
2016-09-15T03:07:28.284Z,16.57
2016-09-15T03:08:28.357Z,16.53
2016-09-15T03:09:28.333Z,16.52
2016-09-15T03:10:28.358Z,16.56
2016-09-15T03:11:28.386Z,16.48
2016-09-15T03:12:28.409Z,16.46
2016-09-15T03:13:28.446Z,16.48
2016-09-15T03:14:43.385Z,16.46
2016-09-15T03:15:28.481Z,16.5
2016-09-15T03:16:28.506Z,16.46
2016-09-15T03:17:28.528Z,16.48
2016-09-15T03:18:43.482Z,16.52
2016-09-15T03:19:43.508Z,16.48
2016-09-15T03:20:28.614Z,16.45
2016-09-15T03:21:28.637Z,16.42
2016-09-15T03:22:28.662Z,16.45
2016-09-15T03:23:28.690Z,16.52
2016-09-15T03:24:28.712Z,16.49
2016-09-15T03:25:28.734Z,16.46
2016-09-15T03:27:28.789Z,16.49
2016-09-15T03:28:29.120Z,16.49
2016-09-15T03:29:29.140Z,16.49
2016-09-15T03:30:28.863Z,16.42
2016-09-15T03:31:29.201Z,16.39
2016-09-15T03:32:28.916Z,16.28
2016-09-15T03:33:28.942Z,16.34
2016-09-15T03:34:28.971Z,16.46
2016-09-15T03:35:28.994Z,16.45
2016-09-15T03:36:29.019Z,16.45
2016-09-15T03:37:29.344Z,16.3
2016-09-15T03:38:29.074Z,16.39
2016-09-15T03:39:29.094Z,16.38
2016-09-15T03:40:29.162Z,16.41
2016-09-15T03:41:29.447Z,16.39
2016-09-15T03:42:29.160Z,16.38
2016-09-15T03:43:29.193Z,16.3
2016-09-15T03:44:29.213Z,16.41
2016-09-15T03:45:29.253Z,16.43
2016-09-15T03:46:44.192Z,16.3
2016-09-15T03:47:44.215Z,16.34
2016-09-15T03:48:29.321Z,16.42
2016-09-15T03:49:29.337Z,16.25
2016-09-15T03:50:44.287Z,16.39
2016-09-15T03:51:29.394Z,16.31
2016-09-15T03:53:29.446Z,16.33
2016-09-15T03:54:29.465Z,16.34
2016-09-15T03:55:29.487Z,16.24
2016-09-15T03:56:29.519Z,16.33
2016-09-15T03:57:29.540Z,16.27
2016-09-15T03:58:29.570Z,16.28
2016-09-15T03:59:29.589Z,16.23
2016-09-15T04:00:29.617Z,16.23
2016-09-15T04:01:29.634Z,16.11
2016-09-15T04:02:29.665Z,16.08
2016-09-15T04:03:29.690Z,16.08
2016-09-15T04:04:29.716Z,16.14
2016-09-15T04:05:29.741Z,16.05
2016-09-15T04:06:44.689Z,16.07
2016-09-15T04:07:29.801Z,16.08
2016-09-15T04:08:29.816Z,16.05
2016-09-15T04:09:29.842Z,16.09
2016-09-15T04:10:29.861Z,16.05
2016-09-15T04:11:29.894Z,16.04
2016-09-15T04:12:29.918Z,16.05
2016-09-15T04:13:29.943Z,16.09
2016-09-15T04:14:29.968Z,16.07
2016-09-15T04:15:29.994Z,16.07
2016-09-15T04:16:30.013Z,15.96
2016-09-15T04:17:30.040Z,15.96
2016-09-15T04:18:30.088Z,15.97
2016-09-15T04:20:30.116Z,16
2016-09-15T04:21:30.143Z,15.89
2016-09-15T04:22:45.087Z,15.96
2016-09-15T04:23:45.114Z,15.96
2016-09-15T04:24:30.220Z,15.97
2016-09-15T04:25:30.244Z,15.96
2016-09-15T04:26:30.269Z,16.01
2016-09-15T04:27:30.296Z,15.97
2016-09-15T04:28:30.321Z,15.96
2016-09-15T04:29:30.343Z,16
2016-09-15T04:30:30.365Z,16
2016-09-15T04:32:30.417Z,16.11
2016-09-15T04:33:45.420Z,16.08
2016-09-15T04:34:30.471Z,16.01
2016-09-15T04:35:45.417Z,15.93
2016-09-15T04:36:30.525Z,16.04
2016-09-15T04:37:45.470Z,15.97
2016-09-15T04:38:45.488Z,15.94
2016-09-15T04:39:30.591Z,15.93
2016-09-15T04:40:30.623Z,15.89
2016-09-15T04:42:30.668Z,16.04
2016-09-15T04:43:30.689Z,16.01
2016-09-15T04:44:30.719Z,15.94
2016-09-15T04:45:30.743Z,16.01
2016-09-15T04:46:30.768Z,15.93
2016-09-15T04:47:30.793Z,15.94
2016-09-15T04:48:30.819Z,15.92
2016-09-15T04:50:45.794Z,16
2016-09-15T04:51:30.891Z,16.04
2016-09-15T04:52:30.921Z,16.04
2016-09-15T04:53:45.868Z,16.01
2016-09-15T04:54:30.965Z,15.92
2016-09-15T04:55:30.998Z,16.01
2016-09-15T04:56:31.015Z,15.97
2016-09-15T04:57:31.054Z,16.05
2016-09-15T04:58:31.065Z,16.04
2016-09-15T04:59:31.097Z,16.09
2016-09-15T05:00:31.111Z,16.09
2016-09-15T05:01:31.442Z,16.12
2016-09-15T05:02:31.166Z,16.09
2016-09-15T05:04:31.224Z,16.12
2016-09-15T05:05:31.247Z,16.08
2016-09-15T05:06:31.267Z,16.14
2016-09-15T05:07:31.297Z,16.11
2016-09-15T05:08:31.327Z,16.09
2016-09-15T05:10:31.373Z,16.07
2016-09-15T05:11:31.400Z,16.04
2016-09-15T05:12:31.422Z,16.11
2016-09-15T05:13:31.450Z,16.17
2016-09-15T05:14:31.469Z,16.31
2016-09-15T05:15:31.492Z,16.24
2016-09-15T05:16:31.519Z,16.34
2016-09-15T05:17:31.542Z,16.39
2016-09-15T05:18:31.570Z,16.41
2016-09-15T05:19:31.587Z,16.3
2016-09-15T05:20:31.618Z,16.28
2016-09-15T05:21:31.641Z,16.45
2016-09-15T05:23:31.690Z,16.27
2016-09-15T05:24:31.714Z,16.33
2016-09-15T05:25:46.669Z,16.35
2016-09-15T05:26:46.692Z,16.46
2016-09-15T05:27:31.792Z,16.35
2016-09-15T05:28:31.822Z,16.38
2016-09-15T05:29:31.844Z,16.3
2016-09-15T05:30:31.873Z,16.43
2016-09-15T05:31:31.894Z,16.48
2016-09-15T05:33:46.875Z,16.41
2016-09-15T05:34:31.967Z,16.42
2016-09-15T05:35:32.045Z,16.38
2016-09-15T05:36:32.023Z,16.49
2016-09-15T05:37:32.044Z,16.52
2016-09-15T05:38:46.998Z,16.49
2016-09-15T05:39:47.023Z,16.52
2016-09-15T05:40:32.127Z,16.53
2016-09-15T05:41:47.073Z,16.6
2016-09-15T05:42:32.173Z,16.57
2016-09-15T05:43:32.203Z,16.5
2016-09-15T05:44:32.223Z,16.63
2016-09-15T05:45:32.251Z,16.64
2016-09-15T05:46:32.329Z,16.61
2016-09-15T05:47:32.294Z,16.66
2016-09-15T05:48:32.323Z,16.75
2016-09-15T05:49:32.349Z,16.78
2016-09-15T05:50:32.380Z,16.79
2016-09-15T05:51:32.399Z,16.73
2016-09-15T05:52:32.425Z,16.88
2016-09-15T05:53:32.452Z,16.98
2016-09-15T05:54:32.476Z,17.28
2016-09-15T05:55:47.427Z,17.62
2016-09-15T05:56:32.527Z,18
2016-09-15T05:57:47.473Z,18.3
2016-09-15T05:58:32.576Z,18.54
2016-09-15T05:59:32.604Z,18.81
2016-09-15T06:01:32.657Z,19.44
2016-09-15T06:02:32.686Z,19.58
2016-09-15T06:03:32.712Z,19.73
2016-09-15T06:04:32.744Z,19.91
2016-09-15T06:06:32.799Z,20.11
2016-09-15T06:07:32.843Z,20.21
2016-09-15T06:08:32.861Z,20.39
2016-09-15T06:09:32.887Z,20.58
2016-09-15T06:10:32.969Z,20.85
2016-09-15T06:11:33.248Z,21.12
2016-09-15T06:12:32.988Z,21.27
2016-09-15T06:13:47.940Z,21.37
2016-09-15T06:14:33.041Z,21.37
2016-09-15T06:15:33.085Z,21.32
2016-09-15T06:16:33.103Z,21.42
2016-09-15T06:17:33.436Z,21.59
2016-09-15T06:18:33.170Z,21.8
2016-09-15T06:19:33.205Z,22.1
2016-09-15T06:20:33.238Z,22.18
2016-09-15T06:21:33.575Z,22.22
2016-09-15T06:22:33.304Z,22.2
2016-09-15T06:23:33.334Z,22.24
2016-09-15T06:24:33.368Z,22.42
2016-09-15T06:25:48.330Z,22.47
2016-09-15T06:26:33.437Z,22.52
2016-09-15T06:27:33.465Z,22.68
2016-09-15T06:28:48.431Z,22.79
2016-09-15T06:29:33.540Z,22.83
2016-09-15T06:30:48.497Z,23.1
2016-09-15T06:31:48.531Z,23.12
2016-09-15T06:33:33.676Z,23.17
2016-09-15T06:34:33.715Z,23.22
2016-09-15T06:35:33.749Z,23.23
2016-09-15T06:36:33.790Z,23.35
2016-09-15T06:37:33.818Z,23.42
2016-09-15T06:38:33.848Z,23.7
2016-09-15T06:39:33.886Z,23.8
2016-09-15T06:40:48.848Z,23.75
2016-09-15T06:41:33.951Z,23.6
2016-09-15T06:42:48.918Z,23.54
2016-09-15T06:43:34.024Z,23.66
2016-09-15T06:44:34.058Z,23.73
2016-09-15T06:45:34.101Z,23.7
2016-09-15T06:47:34.163Z,23.94
2016-09-15T06:48:34.203Z,24.2
2016-09-15T06:49:34.230Z,24.32
2016-09-15T06:50:34.271Z,24.46
2016-09-15T06:51:34.309Z,24.28
2016-09-15T06:52:34.336Z,24.1
2016-09-15T06:53:34.380Z,23.94
2016-09-15T06:54:34.469Z,23.91
2016-09-15T06:55:34.455Z,24.15
2016-09-15T06:56:34.485Z,24.46
2016-09-15T06:57:34.517Z,24.53
2016-09-15T06:59:34.889Z,24.55
2016-09-15T07:00:49.557Z,24.78
2016-09-15T07:01:34.660Z,24.81
2016-09-15T07:02:35.009Z,24.87
2016-09-15T07:04:34.769Z,24.53
2016-09-15T07:05:34.803Z,24.45
2016-09-15T07:06:34.847Z,24.58
2016-09-15T07:07:34.881Z,24.77
2016-09-15T07:08:34.923Z,24.77
2016-09-15T07:09:34.952Z,24.53
2016-09-15T07:10:34.985Z,24.46
2016-09-15T07:11:35.018Z,24.71
2016-09-15T07:12:49.986Z,24.9
2016-09-15T07:13:35.086Z,25.03
2016-09-15T07:14:35.131Z,24.85
2016-09-15T07:15:35.172Z,25.1
2016-09-15T07:16:50.128Z,25.09
2016-09-15T07:17:35.239Z,25.17
2016-09-15T07:18:50.198Z,25.23
2016-09-15T07:19:35.312Z,25.21
2016-09-15T07:20:35.341Z,25.18
2016-09-15T07:21:35.382Z,25.43
2016-09-15T07:22:35.415Z,25.5
2016-09-15T07:23:35.448Z,25.23
2016-09-15T07:25:35.535Z,25.32
2016-09-15T07:26:35.567Z,25.1
2016-09-15T07:27:35.598Z,25.23
2016-09-15T07:29:35.669Z,25.33
2016-09-15T07:30:35.709Z,25.32
2016-09-15T07:31:35.741Z,25.65
2016-09-15T07:32:50.705Z,25.7
2016-09-15T07:33:35.809Z,25.73
2016-09-15T07:34:35.849Z,25.65
2016-09-15T07:35:35.888Z,25.9
2016-09-15T07:36:35.927Z,26.05
2016-09-15T07:37:35.959Z,26.18
2016-09-15T07:38:35.992Z,26.15
2016-09-15T07:39:36.028Z,26.02
2016-09-15T07:40:36.067Z,26.05
2016-09-15T07:41:36.104Z,26.15
2016-09-15T07:42:36.135Z,26.36
2016-09-15T07:43:36.171Z,26.18
2016-09-15T07:44:51.138Z,26.51
2016-09-15T07:46:36.282Z,26.66
2016-09-15T07:47:36.316Z,26.65
2016-09-15T07:48:51.283Z,26.77
2016-09-15T07:49:51.312Z,26.84
2016-09-15T07:50:36.429Z,26.87
2016-09-15T07:51:36.469Z,26.87
2016-09-15T07:52:36.503Z,26.62
2016-09-15T07:53:36.530Z,26.54
2016-09-15T07:54:36.571Z,26.72
2016-09-15T07:55:37.656Z,26.54
2016-09-15T07:56:36.631Z,26.6
2016-09-15T07:57:36.675Z,26.5
2016-09-15T07:58:36.705Z,26.72
2016-09-15T07:59:36.741Z,26.75
2016-09-15T08:00:36.776Z,26.66
2016-09-15T08:01:36.817Z,26.92
2016-09-15T08:02:51.783Z,26.92
2016-09-15T08:03:51.814Z,26.95
2016-09-15T08:04:36.922Z,26.82
2016-09-15T08:05:36.960Z,26.8
2016-09-15T08:06:36.995Z,26.8
2016-09-15T08:07:37.033Z,26.58
2016-09-15T08:08:37.086Z,26.95
2016-09-15T08:09:37.102Z,26.94
2016-09-15T08:10:37.139Z,26.88
2016-09-15T08:11:37.165Z,26.97
2016-09-15T08:12:37.211Z,27.04
2016-09-15T08:13:37.240Z,27
2016-09-15T08:14:37.277Z,26.81
2016-09-15T08:15:37.313Z,26.94
2016-09-15T08:16:52.275Z,27.32
2016-09-15T08:17:37.379Z,27.43
2016-09-15T08:18:37.421Z,27.22
2016-09-15T08:19:37.453Z,27.34
2016-09-15T08:20:37.486Z,27.5
2016-09-15T08:21:37.525Z,27.62
2016-09-15T08:24:37.626Z,27.69
2016-09-15T08:25:37.678Z,27.82
2016-09-15T08:26:37.693Z,27.9
2016-09-15T08:27:37.736Z,27.85
2016-09-15T08:28:37.770Z,28.06
2016-09-15T08:29:37.807Z,28.25
2016-09-15T08:31:37.872Z,28.22
2016-09-15T08:32:37.913Z,28.14
2016-09-15T08:33:37.946Z,28
2016-09-15T08:34:37.977Z,28.12
2016-09-15T08:35:52.939Z,27.97
2016-09-15T08:36:38.044Z,28.06
2016-09-15T08:37:38.099Z,27.97
2016-09-15T08:38:38.119Z,27.74
2016-09-15T08:39:38.154Z,27.93
2016-09-15T08:40:38.186Z,27.7
2016-09-15T08:41:38.521Z,27.77
2016-09-15T08:42:38.257Z,27.51
2016-09-15T08:43:38.295Z,27.74
2016-09-15T08:44:38.330Z,28.07
2016-09-15T08:46:38.394Z,28.43
2016-09-15T08:47:38.431Z,28.17
2016-09-15T08:48:38.469Z,28
2016-09-15T08:49:38.501Z,27.75
2016-09-15T08:50:38.541Z,27.66
2016-09-15T08:51:53.798Z,27.94
2016-09-15T08:52:38.605Z,27.94
2016-09-15T08:53:53.565Z,28.03
2016-09-15T08:54:38.677Z,28
2016-09-15T08:55:38.722Z,27.66
2016-09-15T08:56:38.747Z,27.72
2016-09-15T08:57:38.783Z,27.69
2016-09-15T08:58:38.814Z,27.84
2016-09-15T08:59:38.851Z,27.69
2016-09-15T09:00:38.887Z,27.72
2016-09-15T09:01:38.913Z,27.99
2016-09-15T09:02:38.957Z,28.11
2016-09-15T09:05:39.060Z,27.96
2016-09-15T09:06:39.096Z,27.96
2016-09-15T09:07:54.049Z,28.14
2016-09-15T09:08:54.082Z,28.14
2016-09-15T09:10:39.228Z,28.43
2016-09-15T09:11:39.260Z,28.58
2016-09-15T09:12:39.302Z,28.62
2016-09-15T09:13:39.333Z,28.66
2016-09-15T09:14:39.368Z,28.55
2016-09-15T09:15:39.393Z,28.39
2016-09-15T09:16:39.436Z,28.48
2016-09-15T09:17:39.468Z,28.37
2016-09-15T09:18:39.502Z,28.59
2016-09-15T09:19:39.536Z,28.58
2016-09-15T09:20:39.579Z,28.44
2016-09-15T09:21:39.607Z,28.21
2016-09-15T09:22:39.646Z,28.39
2016-09-15T09:23:54.709Z,28.44
2016-09-15T09:24:39.703Z,28.56
2016-09-15T09:25:39.747Z,28.64
2016-09-15T09:27:39.814Z,28.68
2016-09-15T09:28:39.841Z,28.71
2016-09-15T09:29:39.876Z,28.81
2016-09-15T09:30:39.908Z,28.78
2016-09-15T09:31:39.944Z,28.66
2016-09-15T09:32:39.976Z,28.67
2016-09-15T09:33:40.013Z,28.31
2016-09-15T09:35:40.072Z,28.06
2016-09-15T09:36:40.116Z,27.93
2016-09-15T09:37:40.145Z,27.94
2016-09-15T09:38:55.109Z,28.03
2016-09-15T09:39:40.219Z,28
2016-09-15T09:40:40.249Z,28.06
2016-09-15T09:41:40.284Z,28.12
2016-09-15T09:42:40.321Z,28.33
2016-09-15T09:43:40.365Z,28.21
2016-09-15T09:44:40.386Z,27.97
2016-09-15T09:45:40.416Z,28.34
2016-09-15T09:46:40.451Z,28.34
2016-09-15T09:47:40.486Z,28
2016-09-15T09:48:40.514Z,28
2016-09-15T09:49:40.556Z,28.14
2016-09-15T09:50:40.592Z,28.43
2016-09-15T09:51:40.635Z,28.8
2016-09-15T09:52:40.656Z,28.52
2016-09-15T09:53:40.680Z,28.49
2016-09-15T09:54:55.646Z,28.58
2016-09-15T09:55:40.749Z,28.66
2016-09-15T09:56:40.783Z,28.73
2016-09-15T09:57:40.824Z,28.85
2016-09-15T09:58:40.854Z,28.71
2016-09-15T09:59:40.888Z,28.55
2016-09-15T10:00:40.919Z,28.48
2016-09-15T10:01:40.952Z,28.4
2016-09-15T10:02:40.988Z,28.49
2016-09-15T10:03:41.017Z,28.39
2016-09-15T10:04:41.103Z,28.24
2016-09-15T10:05:41.091Z,28.22
2016-09-15T10:06:41.123Z,28.15
2016-09-15T10:07:41.151Z,27.97
2016-09-15T10:09:41.222Z,27.78
2016-09-15T10:10:56.180Z,27.65
2016-09-15T10:11:56.216Z,27.59
2016-09-15T10:12:41.323Z,27.36
2016-09-15T10:14:41.387Z,26.62
2016-09-15T10:15:41.414Z,26.58
2016-09-15T10:16:41.454Z,26.5
2016-09-15T10:17:41.493Z,26.47
2016-09-15T10:18:41.518Z,26.3
2016-09-15T10:19:41.562Z,26.39
2016-09-15T10:21:41.614Z,26.55
2016-09-15T10:22:41.652Z,26.6
2016-09-15T10:23:41.688Z,26.75
2016-09-15T10:24:56.641Z,26.75
2016-09-15T10:25:41.743Z,26.69
2016-09-15T10:26:56.708Z,26.57
2016-09-15T10:27:41.862Z,26.54
2016-09-15T10:28:41.848Z,26.6
2016-09-15T10:29:41.878Z,26.54
2016-09-15T10:30:41.906Z,26.54
2016-09-15T10:31:41.946Z,26.58
2016-09-15T10:32:41.992Z,26.45
2016-09-15T10:33:42.013Z,26.45
2016-09-15T10:34:42.044Z,26.4
2016-09-15T10:35:42.073Z,26.5
2016-09-15T10:36:42.106Z,26.45
2016-09-15T10:37:42.134Z,26.48
2016-09-15T10:38:57.094Z,26.47
2016-09-15T10:39:42.197Z,26.33
2016-09-15T10:40:42.245Z,26.3
2016-09-15T10:41:42.265Z,26.45
2016-09-15T10:42:57.217Z,26.3
2016-09-15T10:43:42.328Z,26.23
2016-09-15T10:44:42.359Z,26.01
2016-09-15T10:45:42.386Z,26.01
2016-09-15T10:46:42.422Z,26.05
2016-09-15T10:47:42.455Z,26.02
2016-09-15T10:48:42.479Z,26.23
2016-09-15T10:49:42.511Z,26.37
2016-09-15T10:50:42.550Z,26.4
2016-09-15T10:51:42.583Z,26.51
2016-09-15T10:52:42.609Z,26.3
2016-09-15T10:53:42.639Z,26.35
2016-09-15T10:54:42.664Z,26.4
2016-09-15T10:55:42.713Z,26.47
2016-09-15T10:56:42.727Z,26.52
2016-09-15T10:57:43.064Z,26.35
2016-09-15T10:58:57.720Z,26.36
2016-09-15T10:59:42.821Z,26.32
2016-09-15T11:00:42.856Z,26.3
2016-09-15T11:01:42.888Z,26.18
2016-09-15T11:02:42.913Z,26.18
2016-09-15T11:03:42.952Z,26.05
2016-09-15T11:04:42.981Z,25.99
2016-09-15T11:05:43.055Z,26.06
2016-09-15T11:06:43.044Z,26.05
2016-09-15T11:07:43.068Z,26.23
2016-09-15T11:08:43.101Z,26.21
2016-09-15T11:09:43.129Z,26.05
2016-09-15T11:10:43.159Z,26.12
2016-09-15T11:11:43.248Z,25.92
2016-09-15T11:13:58.177Z,25.79
2016-09-15T11:14:58.207Z,25.95
2016-09-15T11:15:43.313Z,25.94
2016-09-15T11:16:43.348Z,26.18
2016-09-15T11:17:43.367Z,26.32
2016-09-15T11:19:43.432Z,26.32
2016-09-15T11:20:43.464Z,26.23
2016-09-15T11:21:43.498Z,26.09
2016-09-15T11:22:43.526Z,25.98
2016-09-15T11:24:43.588Z,26.29
2016-09-15T11:26:43.644Z,26.47
2016-09-15T11:27:43.744Z,26.44
2016-09-15T11:28:43.706Z,26.44
2016-09-15T11:29:43.742Z,26.3
2016-09-15T11:30:43.767Z,26.43
2016-09-15T11:31:43.801Z,26.44
2016-09-15T11:32:44.883Z,26.57
2016-09-15T11:33:43.861Z,26.62
2016-09-15T11:34:44.192Z,26.6
2016-09-15T11:35:58.856Z,26.54
2016-09-15T11:36:43.950Z,26.52
2016-09-15T11:37:43.978Z,26.51
2016-09-15T11:38:44.011Z,26.52
2016-09-15T11:39:44.043Z,26.44
2016-09-15T11:40:44.073Z,26.48
2016-09-15T11:41:44.094Z,26.32
2016-09-15T11:42:59.059Z,26.43
2016-09-15T11:43:59.089Z,26.33
2016-09-15T11:44:44.196Z,26.32
2016-09-15T11:45:59.150Z,26.44
2016-09-15T11:46:44.251Z,26.39
2016-09-15T11:47:44.286Z,26.44
2016-09-15T11:48:44.312Z,26.29
2016-09-15T11:49:44.344Z,26.21
2016-09-15T11:50:44.375Z,26.3
2016-09-15T11:51:44.401Z,26.26
2016-09-15T11:52:44.437Z,26.36
2016-09-15T11:53:44.474Z,26.5
2016-09-15T11:54:44.497Z,26.52
2016-09-15T11:55:44.523Z,26.4
2016-09-15T11:56:44.546Z,26.55
2016-09-15T11:57:59.510Z,26.77
2016-09-15T11:58:44.614Z,26.7
2016-09-15T11:59:44.635Z,26.55
2016-09-15T12:00:44.673Z,26.45
2016-09-15T12:01:59.629Z,26.51
2016-09-15T12:02:44.736Z,26.6
2016-09-15T12:03:44.758Z,26.69
2016-09-15T12:04:44.786Z,26.8
2016-09-15T12:05:44.826Z,26.82
2016-09-15T12:06:44.856Z,26.82
2016-09-15T12:08:44.920Z,26.81
2016-09-15T12:09:44.942Z,26.73
2016-09-15T12:10:44.969Z,26.7
2016-09-15T12:11:45.053Z,26.82
2016-09-15T12:13:45.057Z,26.76
2016-09-15T12:14:45.396Z,26.84
2016-09-15T12:15:45.120Z,26.7
2016-09-15T12:16:45.152Z,26.82
2016-09-15T12:18:00.103Z,26.97
2016-09-15T12:18:45.205Z,26.91
2016-09-15T12:19:45.237Z,27
2016-09-15T12:20:45.275Z,26.91
2016-09-15T12:21:45.303Z,27.04
2016-09-15T12:22:45.326Z,27.18
2016-09-15T12:24:45.401Z,27.03
2016-09-15T12:25:45.421Z,27.04
2016-09-15T12:26:45.442Z,26.87
2016-09-15T12:27:45.478Z,26.91
2016-09-15T12:28:45.502Z,27.02
2016-09-15T12:29:45.540Z,26.84
2016-09-15T12:31:00.492Z,26.92
2016-09-15T12:31:45.604Z,26.8
2016-09-15T12:32:45.630Z,26.8
2016-09-15T12:34:00.577Z,26.7
2016-09-15T12:34:45.756Z,26.62
2016-09-15T12:35:45.718Z,26.63
2016-09-15T12:36:45.747Z,26.47
2016-09-15T12:37:45.824Z,26.51
2016-09-15T12:38:45.804Z,26.58
2016-09-15T12:39:45.835Z,26.65
2016-09-15T12:40:45.863Z,26.6
2016-09-15T12:41:45.891Z,26.73
2016-09-15T12:43:45.956Z,26.97
2016-09-15T12:44:45.982Z,27.02
2016-09-15T12:45:46.011Z,27.13
2016-09-15T12:47:00.970Z,27.13
2016-09-15T12:47:46.077Z,27.06
2016-09-15T12:49:01.031Z,27.13
2016-09-15T12:49:46.135Z,27.1
2016-09-15T12:50:46.161Z,27.03
2016-09-15T12:51:46.190Z,27.09
2016-09-15T12:53:46.254Z,27.04
2016-09-15T12:54:46.282Z,26.92
2016-09-15T12:55:46.312Z,26.94
2016-09-15T12:56:46.344Z,26.92
2016-09-15T12:57:46.380Z,26.92
2016-09-15T12:58:46.410Z,26.92
2016-09-15T12:59:46.436Z,26.97
2016-09-15T13:00:46.460Z,26.89
2016-09-15T13:02:46.519Z,26.91
2016-09-15T13:03:46.556Z,26.85
2016-09-15T13:04:46.585Z,26.91
2016-09-15T13:05:46.615Z,26.91
2016-09-15T13:06:46.639Z,26.95
2016-09-15T13:07:46.678Z,26.95
2016-09-15T13:08:46.700Z,26.99
2016-09-15T13:09:46.728Z,26.89
2016-09-15T13:10:46.760Z,26.91
2016-09-15T13:11:47.090Z,26.94
2016-09-15T13:12:46.872Z,26.95
2016-09-15T13:13:46.851Z,26.97
2016-09-15T13:14:46.884Z,26.95
2016-09-15T13:15:46.907Z,27.06
2016-09-15T13:16:46.938Z,27.14
2016-09-15T13:17:46.967Z,27.22
2016-09-15T13:19:01.975Z,27.34
2016-09-15T13:19:47.028Z,27.31
2016-09-15T13:21:01.987Z,27.29
2016-09-15T13:21:47.085Z,27.19
2016-09-15T13:22:47.116Z,27.17
2016-09-15T13:23:47.150Z,27.14
2016-09-15T13:24:47.175Z,26.99
2016-09-15T13:25:47.208Z,27.04
2016-09-15T13:26:47.236Z,27.04
2016-09-15T13:27:47.265Z,27.12
2016-09-15T13:28:47.599Z,27.1
2016-09-15T13:29:47.326Z,27.12
2016-09-15T13:30:47.354Z,27.04
2016-09-15T13:31:47.391Z,27.06
2016-09-15T13:32:47.420Z,27.04
2016-09-15T13:33:47.447Z,27.14
2016-09-15T13:34:47.476Z,27.14
2016-09-15T13:35:47.519Z,27
2016-09-15T13:37:02.466Z,26.89
2016-09-15T13:37:47.564Z,26.91
2016-09-15T13:39:02.518Z,26.87
2016-09-15T13:39:47.633Z,26.97
2016-09-15T13:40:47.659Z,26.94
2016-09-15T13:41:47.684Z,26.95
2016-09-15T13:42:47.715Z,27
2016-09-15T13:44:02.679Z,26.99
2016-09-15T13:44:47.778Z,26.92
2016-09-15T13:45:47.804Z,26.92
2016-09-15T13:46:47.839Z,26.95